Bengbu, China
Current Conditions -  °F | °C
As of 5:00 PM on Sunday 23 Nov 2014 (Local Time) from ZSOF Reporting Station
Light Rain Light Rain  
Wind Chill: 57°   Ceiling: 500
Heat Index: 57°   Visibility: 0.25mi
Dew Point: 55°   Wind: 7mph
Humidity: 94%   Direction: 270°W
Pressure: 30.09"   Gusts: NA
Location:  32.95°N, 117.33°E
Report Text: ZSOF 230900Z 27003MPS 0400 R33/0550D -RA FG BKN005OVC03014/13 Q1019 BECMG AT1100 0300
Loading
Personal Weather Stations






























Interactive Weather Map New forecast layout! Learn more

10-Day Weather Forecast

Advertisements
Track Severe Weather on mobile